Time;durP1;ratioP1;P1;durP2;ratioP2;P2;SDS_P1;SDS_P2;PMS_P1;PMS_P2;Temp;Humidity;BMP_temperature;BMP_pressure;BME280_temperature;BME280_humidity;BME280_pressure;Samples;Min_cycle;Max_cycle;Signal;HPM_P1;HPM_P2
2022/09/30 00:01:41;;;;;;;25.42;15.93;;;7.10;99.90;;;;;;4951157;28;20486;-74
2022/09/30 00:04:13;;;;;;;20.52;14.50;;;7.00;99.90;;;;;;4954984;28;20043;-75
2022/09/30 00:06:41;;;;;;;19.70;13.15;;;7.00;99.90;;;;;;4946308;28;20230;-74
2022/09/30 00:09:10;;;;;;;23.23;13.65;;;7.00;99.90;;;;;;4953557;28;20047;-74
2022/09/30 00:11:38;;;;;;;19.95;12.65;;;7.00;99.90;;;;;;4952572;29;20043;-74
2022/09/30 00:14:11;;;;;;;23.40;14.45;;;7.00;99.90;;;;;;4951400;29;20501;-75
2022/09/30 00:16:38;;;;;;;;;;;7.00;99.90;;;;;;4953425;29;20494;-75
2022/09/30 00:19:05;;;;;;;20.42;12.50;;;6.90;99.90;;;;;;4918119;29;19958;-77
2022/09/30 00:21:33;;;;;;;20.33;13.07;;;6.90;99.90;;;;;;4951499;29;20485;-76
2022/09/30 00:24:02;;;;;;;25.17;15.38;;;6.80;99.90;;;;;;4952555;28;20051;-77
2022/09/30 00:26:30;;;;;;;27.15;15.15;;;6.80;99.90;;;;;;4922755;29;20521;-74
2022/09/30 00:28:59;;;;;;;25.55;14.23;;;6.70;99.90;;;;;;4938739;28;20035;-74
2022/09/30 00:31:34;;;;;;;22.50;13.77;;;6.70;99.90;;;;;;4960487;28;20394;-74
2022/09/30 00:34:06;;;;;;;21.40;13.60;;;6.60;99.90;;;;;;4930731;29;20044;-75
2022/09/30 00:36:42;;;;;;;20.05;13.18;;;6.50;99.90;;;;;;4943132;28;20051;-75
2022/09/30 00:39:22;;;;;;;20.55;12.93;;;6.50;99.90;;;;;;4954064;28;20458;-73
2022/09/30 00:42:01;;;;;;;22.27;13.10;;;6.40;99.90;;;;;;4952179;29;20047;-77
2022/09/30 00:44:44;;;;;;;17.23;11.73;;;6.40;99.90;;;;;;4953792;28;20399;-74
2022/09/30 00:47:27;;;;;;;17.73;11.63;;;6.30;99.90;;;;;;4952244;28;20118;-76
2022/09/30 00:49:57;;;;;;;18.63;11.63;;;6.30;99.90;;;;;;4957027;28;20094;-78
2022/09/30 00:52:25;;;;;;;19.75;11.77;;;6.20;99.90;;;;;;4952202;28;20048;-78
2022/09/30 00:54:57;;;;;;;19.95;12.50;;;6.20;99.90;;;;;;4961487;28;20039;-77
2022/09/30 00:57:24;;;;;;;20.35;13.10;;;6.10;99.90;;;;;;4952074;29;20430;-77
2022/09/30 00:59:51;;;;;;;19.70;11.82;;;6.10;99.90;;;;;;4953028;29;20043;-77
2022/09/30 01:02:19;;;;;;;19.20;12.52;;;6.10;99.90;;;;;;4932928;29;20146;-76
2022/09/30 01:04:47;;;;;;;19.20;11.63;;;6.00;99.90;;;;;;4952184;28;20134;-77
2022/09/30 01:07:14;;;;;;;17.98;11.93;;;6.00;99.90;;;;;;4948324;29;20085;-77
2022/09/30 01:09:43;;;;;;;21.95;12.88;;;6.00;99.90;;;;;;4951764;28;20059;-79
2022/09/30 01:12:17;;;;;;;24.38;13.43;;;6.00;99.90;;;;;;4948166;28;20046;-79
2022/09/30 01:14:46;;;;;;;21.58;13.13;;;5.90;99.90;;;;;;4944611;28;20481;-79
2022/09/30 01:17:30;;;;;;;23.83;11.80;;;5.90;99.90;;;;;;4951557;29;20047;-78
2022/09/30 01:20:40;;;;;;;24.90;13.13;;;5.90;99.90;;;;;;4946566;29;20511;-80
2022/09/30 01:23:26;;;;;;;23.85;13.75;;;5.90;99.90;;;;;;4958872;28;20502;-79
2022/09/30 01:26:10;;;;;;;22.55;14.57;;;5.90;99.90;;;;;;4952011;29;20050;-77
2022/09/30 01:29:08;;;;;;;25.23;13.18;;;5.80;99.90;;;;;;4951442;29;20358;-78
2022/09/30 01:31:47;;;;;;;27.27;16.00;;;5.80;99.90;;;;;;4952770;29;20039;-79
2022/09/30 01:34:54;;;;;;;24.38;15.25;;;5.90;99.90;;;;;;4935939;29;20535;-76
2022/09/30 01:37:40;;;;;;;24.67;14.43;;;6.00;99.90;;;;;;4957787;28;20061;-78
2022/09/30 01:40:22;;;;;;;22.50;12.73;;;6.10;99.90;;;;;;4953624;28;20046;-79
2022/09/30 01:43:11;;;;;;;21.10;13.73;;;6.10;99.90;;;;;;4953183;28;20050;-79
2022/09/30 01:46:01;;;;;;;21.20;13.15;;;6.20;99.90;;;;;;4974767;28;20062;-81
2022/09/30 01:48:41;;;;;;;18.02;12.65;;;6.20;99.90;;;;;;4942350;28;20058;-80
2022/09/30 01:51:42;;;;;;;16.45;10.77;;;6.30;99.90;;;;;;4969056;28;20421;-79
2022/09/30 01:54:23;;;;;;;17.88;11.57;;;6.30;99.90;;;;;;4953322;28;20149;-80
2022/09/30 01:57:01;;;;;;;16.13;10.60;;;6.30;99.90;;;;;;4969511;28;20050;-80
2022/09/30 01:59:41;;;;;;;16.80;10.75;;;6.30;99.90;;;;;;4969726;28;20528;-77
2022/09/30 02:02:41;;;;;;;16.48;10.57;;;6.30;99.90;;;;;;4969384;28;20054;-76
2022/09/30 02:05:31;;;;;;;18.13;11.25;;;6.30;99.90;;;;;;4953372;28;20624;-80
2022/09/30 02:08:23;;;;;;;17.20;11.18;;;6.30;99.90;;;;;;4951904;28;20053;-80
2022/09/30 02:11:05;;;;;;;17.60;10.80;;;6.30;99.90;;;;;;4950812;28;20093;-80
2022/09/30 02:13:48;;;;;;;19.90;10.90;;;6.40;99.90;;;;;;4948467;28;20109;-81
2022/09/30 02:16:24;;;;;;;15.90;10.25;;;6.40;99.90;;;;;;4967384;28;20129;-80
2022/09/30 02:19:05;;;;;;;17.13;10.80;;;6.40;99.90;;;;;;4951435;29;20047;-80
2022/09/30 02:21:37;;;;;;;29.83;10.30;;;6.40;99.90;;;;;;4947384;28;20055;-78
2022/09/30 02:24:11;;;;;;;17.42;9.90;;;6.40;99.90;;;;;;4971829;28;20047;-77
2022/09/30 02:26:41;;;;;;;18.45;10.30;;;6.40;99.90;;;;;;4938730;28;20051;-76
2022/09/30 02:29:26;;;;;;;17.08;10.80;;;6.40;99.90;;;;;;4940049;28;20043;-76
2022/09/30 02:31:59;;;;;;;20.23;11.70;;;6.40;99.90;;;;;;4956632;28;20568;-78
2022/09/30 02:34:42;;;;;;;23.67;13.00;;;6.40;99.90;;;;;;4946995;29;20505;-78
2022/09/30 02:37:20;;;;;;;23.55;12.32;;;6.50;99.90;;;;;;4954171;29;20055;-78
2022/09/30 02:40:10;;;;;;;32.50;16.65;;;6.50;99.90;;;;;;4952216;28;20443;-77
2022/09/30 02:42:40;;;;;;;36.72;16.17;;;6.60;99.90;;;;;;4948039;29;20110;-77
2022/09/30 02:45:10;;;;;;;37.38;15.55;;;6.60;99.90;;;;;;4952896;28;20055;-82
2022/09/30 02:48:02;;;;;;;35.03;15.65;;;6.50;99.90;;;;;;4954011;28;20083;-78
2022/09/30 02:50:51;;;;;;;;;;;6.50;99.90;;;;;;4954945;29;20047;-77
2022/09/30 02:53:52;;;;;;;29.08;14.02;;;6.40;99.90;;;;;;4960916;28;20020;-77
2022/09/30 02:56:48;;;;;;;28.73;13.40;;;6.30;99.90;;;;;;4976191;28;20089;-78
2022/09/30 02:59:16;;;;;;;31.25;14.40;;;6.30;99.90;;;;;;4954333;29;20421;-79
2022/09/30 03:01:44;;;;;;;24.33;12.70;;;6.20;99.90;;;;;;4937925;29;20055;-79
2022/09/30 03:04:16;;;;;;;25.90;12.27;;;6.10;99.90;;;;;;4985291;28;20049;-79
2022/09/30 03:06:44;;;;;;;22.08;11.82;;;6.00;99.90;;;;;;4930235;28;20063;-78
2022/09/30 03:09:11;;;;;;;24.60;11.27;;;5.90;99.90;;;;;;4949226;28;20095;-78
2022/09/30 03:11:39;;;;;;;21.83;10.65;;;5.80;99.90;;;;;;4976112;28;20047;-79
2022/09/30 03:14:12;;;;;;;20.63;11.30;;;5.80;99.90;;;;;;4953936;28;20043;-78
2022/09/30 03:16:59;;;;;;;22.30;11.75;;;5.80;99.90;;;;;;4951488;29;20049;-76
2022/09/30 03:19:30;;;;;;;23.02;11.43;;;5.70;99.90;;;;;;4945332;29;20043;-79
2022/09/30 03:22:04;;;;;;;20.52;10.40;;;5.70;99.90;;;;;;4945037;29;20047;-79
2022/09/30 03:24:58;;;;;;;17.75;11.52;;;5.70;99.90;;;;;;4954894;29;20039;-78
2022/09/30 03:27:45;;;;;;;18.33;10.13;;;5.70;99.90;;;;;;4948055;29;20585;-78
2022/09/30 03:30:27;;;;;;;26.80;12.20;;;5.70;99.90;;;;;;4941847;29;20050;-77
2022/09/30 03:32:57;;;;;;;23.35;11.35;;;5.70;99.90;;;;;;4959297;28;20082;-80
2022/09/30 03:35:51;;;;;;;33.47;12.85;;;5.70;99.90;;;;;;4952229;28;20070;-80
2022/09/30 03:38:59;;;;;;;35.40;15.52;;;5.70;99.90;;;;;;4954468;28;20047;-77
2022/09/30 03:41:32;;;;;;;45.38;16.58;;;5.80;99.90;;;;;;4947822;29;20058;-78
2022/09/30 03:44:23;;;;;;;38.60;16.35;;;5.80;99.90;;;;;;4953265;28;20521;-78
2022/09/30 03:46:55;;;;;;;43.72;17.48;;;5.90;99.90;;;;;;4966534;28;20051;-79
2022/09/30 03:49:29;;;;;;;67.00;18.45;;;5.90;99.90;;;;;;4953107;29;20053;-77
2022/09/30 03:51:58;;;;;;;44.05;18.20;;;5.90;99.90;;;;;;4953686;28;20081;-78
2022/09/30 03:54:25;;;;;;;69.28;21.60;;;6.00;99.90;;;;;;4951674;28;20046;-79
2022/09/30 03:56:53;;;;;;;56.78;19.65;;;6.00;99.90;;;;;;4959918;28;20147;-79
2022/09/30 03:59:24;;;;;;;54.97;19.10;;;6.00;99.90;;;;;;4960492;28;20043;-79
2022/09/30 04:01:52;;;;;;;48.40;18.75;;;6.00;99.90;;;;;;4959497;28;20445;-79
2022/09/30 04:04:19;;;;;;;44.10;18.05;;;6.10;99.90;;;;;;4951508;28;20070;-80
2022/09/30 04:06:47;;;;;;;48.45;16.70;;;6.20;99.90;;;;;;4948597;29;20070;-80
2022/09/30 04:09:15;;;;;;;58.63;15.48;;;6.20;99.90;;;;;;4962645;28;20480;-80
2022/09/30 04:11:42;;;;;;;26.42;12.88;;;6.20;99.90;;;;;;4952134;29;20196;-81
2022/09/30 04:14:09;;;;;;;55.70;15.50;;;6.20;99.90;;;;;;4955273;28;20047;-78
2022/09/30 04:16:36;;;;;;;45.17;13.95;;;6.20;99.90;;;;;;4950676;29;20039;-79
2022/09/30 04:19:04;;;;;;;93.85;17.45;;;6.20;99.90;;;;;;4958419;28;20046;-77
2022/09/30 04:21:31;;;;;;;40.25;15.70;;;6.20;99.90;;;;;;4951317;29;20686;-79
2022/09/30 04:23:59;;;;;;;45.72;17.48;;;6.20;99.90;;;;;;4954294;28;20043;-78
2022/09/30 04:26:26;;;;;;;83.72;19.55;;;6.20;99.90;;;;;;4951589;28;20047;-79
2022/09/30 04:28:57;;;;;;;50.53;18.08;;;6.10;99.90;;;;;;4954052;28;20493;-79
2022/09/30 04:31:24;;;;;;;105.93;20.35;;;6.20;99.90;;;;;;4935553;29;20150;-78
2022/09/30 04:33:51;;;;;;;37.92;13.65;;;6.10;99.90;;;;;;4936108;28;20066;-78
2022/09/30 04:36:19;;;;;;;87.45;18.15;;;6.10;99.90;;;;;;4969644;28;20047;-78
2022/09/30 04:38:46;;;;;;;43.08;16.38;;;6.10;99.90;;;;;;4952397;28;20058;-79
2022/09/30 04:41:16;;;;;;;33.17;13.82;;;6.10;99.90;;;;;;4951900;29;20094;-79
2022/09/30 04:43:45;;;;;;;37.05;15.50;;;6.20;99.90;;;;;;4937558;29;20721;-80
2022/09/30 04:46:18;;;;;;;59.75;17.02;;;6.20;99.90;;;;;;4943659;29;20118;-76
2022/09/30 04:48:46;;;;;;;42.80;16.33;;;6.30;99.90;;;;;;4951539;29;20054;-78
2022/09/30 04:51:17;;;;;;;36.08;13.93;;;6.30;99.90;;;;;;4952976;28;20057;-80
2022/09/30 04:53:45;;;;;;;35.88;14.30;;;6.30;99.90;;;;;;4954885;28;20043;-79
2022/09/30 04:56:15;;;;;;;29.00;14.30;;;6.30;99.90;;;;;;4950612;28;20051;-78
2022/09/30 04:58:43;;;;;;;64.43;14.45;;;6.40;99.90;;;;;;4953405;29;20580;-78
2022/09/30 05:01:13;;;;;;;45.78;13.60;;;6.40;99.90;;;;;;4953282;28;20055;-79
2022/09/30 05:03:40;;;;;;;40.50;13.15;;;6.40;99.90;;;;;;4937100;29;20477;-78
2022/09/30 05:06:08;;;;;;;37.63;12.90;;;6.40;99.90;;;;;;4939154;29;20462;-79
2022/09/30 05:08:35;;;;;;;23.48;11.85;;;6.40;99.90;;;;;;4951754;29;20581;-79
2022/09/30 05:11:08;;;;;;;36.13;13.52;;;6.40;99.90;;;;;;4952472;29;20114;-80
2022/09/30 05:13:38;;;;;;;48.58;14.68;;;6.50;99.90;;;;;;4954174;28;20047;-79
2022/09/30 05:16:07;;;;;;;89.80;15.52;;;6.40;99.90;;;;;;4959003;28;20054;-79
2022/09/30 05:18:35;;;;;;;23.55;12.30;;;6.40;99.90;;;;;;4952633;28;20134;-77
2022/09/30 05:21:03;;;;;;;38.15;14.93;;;6.30;99.90;;;;;;4963741;28;20145;-77
2022/09/30 05:23:31;;;;;;;53.45;15.52;;;6.40;99.90;;;;;;4950519;28;20055;-77
2022/09/30 05:26:00;;;;;;;28.25;12.55;;;6.40;99.90;;;;;;4964772;28;20122;-78
2022/09/30 05:28:30;;;;;;;48.28;14.13;;;6.40;99.90;;;;;;4953177;28;20070;-80
2022/09/30 05:31:00;;;;;;;52.65;14.40;;;6.40;99.90;;;;;;4948893;29;20131;-79
2022/09/30 05:33:28;;;;;;;33.20;12.15;;;6.40;99.90;;;;;;4964787;28;20039;-79
2022/09/30 05:35:58;;;;;;;33.42;13.00;;;6.40;99.90;;;;;;4935975;29;20094;-77
2022/09/30 05:38:26;;;;;;;35.33;14.25;;;6.40;99.90;;;;;;4952018;29;20126;-78
2022/09/30 05:40:54;;;;;;;46.72;14.70;;;6.40;99.90;;;;;;4932695;29;20055;-80
2022/09/30 05:43:22;;;;;;;34.10;13.25;;;6.40;99.90;;;;;;4945952;28;20501;-79
2022/09/30 05:45:56;;;;;;;40.35;13.32;;;6.40;99.90;;;;;;4952810;28;20118;-79
2022/09/30 05:48:24;;;;;;;21.17;9.65;;;6.40;99.90;;;;;;4952807;28;20062;-73
2022/09/30 05:50:56;;;;;;;20.85;11.43;;;6.40;99.90;;;;;;4952836;28;20054;-77
2022/09/30 05:53:24;;;;;;;37.47;12.15;;;6.40;99.90;;;;;;4951842;29;20513;-80
2022/09/30 05:55:51;;;;;;;32.42;11.30;;;6.40;99.90;;;;;;4949424;29;20043;-77
2022/09/30 05:58:20;;;;;;;24.35;11.27;;;6.50;99.90;;;;;;4935360;29;20581;-78
2022/09/30 06:00:48;;;;;;;34.88;11.50;;;6.50;99.90;;;;;;4969724;28;20094;-78
2022/09/30 06:03:16;;;;;;;18.33;10.82;;;6.60;99.90;;;;;;4955877;28;20061;-78
2022/09/30 06:05:44;;;;;;;21.85;11.00;;;6.60;99.90;;;;;;4955196;29;20047;-78
2022/09/30 06:08:13;;;;;;;26.20;11.90;;;6.60;99.90;;;;;;4954874;29;20053;-78
2022/09/30 06:10:42;;;;;;;51.65;12.32;;;6.60;99.90;;;;;;4938277;29;20043;-78
2022/09/30 06:13:10;;;;;;;36.03;12.60;;;6.70;99.90;;;;;;4939034;29;20047;-78
2022/09/30 06:15:38;;;;;;;20.15;11.45;;;6.80;99.90;;;;;;4932550;29;20430;-77
2022/09/30 06:18:06;;;;;;;36.70;18.35;;;6.90;99.90;;;;;;4956626;29;20055;-78
2022/09/30 06:20:35;;;;;;;36.40;15.85;;;6.90;99.90;;;;;;4956719;28;20087;-77
2022/09/30 06:23:03;;;;;;;28.10;15.35;;;6.90;99.90;;;;;;4954814;29;20047;-77
2022/09/30 06:25:31;;;;;;;34.85;15.80;;;7.00;99.90;;;;;;4955982;28;20043;-78
2022/09/30 06:27:58;;;;;;;34.92;14.38;;;7.00;99.90;;;;;;4951054;29;20525;-77
2022/09/30 06:30:25;;;;;;;39.28;14.63;;;7.00;99.90;;;;;;4953088;28;20035;-75
2022/09/30 06:33:00;;;;;;;31.67;13.93;;;7.10;99.90;;;;;;4956809;28;20053;-79
2022/09/30 06:35:27;;;;;;;30.48;14.40;;;7.20;99.90;;;;;;4935917;29;20047;-77
2022/09/30 06:37:55;;;;;;;23.42;13.73;;;7.20;99.90;;;;;;4942513;28;20044;-77
2022/09/30 06:40:22;;;;;;;32.80;15.70;;;7.30;99.90;;;;;;4955692;28;20039;-76
2022/09/30 06:42:49;;;;;;;30.58;14.65;;;7.30;99.90;;;;;;4950643;28;20459;-76
2022/09/30 06:45:17;;;;;;;31.20;15.95;;;7.40;99.90;;;;;;4951569;29;20387;-75
2022/09/30 06:47:59;;;;;;;32.92;16.60;;;7.40;99.90;;;;;;4939970;29;20077;-76
2022/09/30 06:50:28;;;;;;;38.05;17.63;;;7.50;99.90;;;;;;4954404;29;20046;-74
2022/09/30 06:53:05;;;;;;;39.05;17.83;;;7.60;99.90;;;;;;4954635;28;20049;-77
2022/09/30 06:55:35;;;;;;;44.17;17.75;;;7.70;99.90;;;;;;4954719;29;20051;-76
2022/09/30 06:58:02;;;;;;;37.75;17.25;;;7.70;99.90;;;;;;4949606;28;20040;-77
2022/09/30 07:00:30;;;;;;;40.10;16.70;;;7.80;99.90;;;;;;4954374;28;20098;-77
2022/09/30 07:02:57;;;;;;;34.25;17.67;;;7.80;99.90;;;;;;4942035;29;20043;-76
2022/09/30 07:05:25;;;;;;;38.38;17.77;;;7.80;99.90;;;;;;4953969;28;20073;-71
2022/09/30 07:07:53;;;;;;;28.77;14.40;;;7.90;99.90;;;;;;4961922;28;20558;-78
2022/09/30 07:10:20;;;;;;;31.13;15.55;;;8.00;99.90;;;;;;4945884;28;20054;-79
2022/09/30 07:12:52;;;;;;;63.22;17.77;;;8.00;99.90;;;;;;4951127;28;20047;-75
2022/09/30 07:15:21;;;;;;;28.40;14.77;;;8.00;99.90;;;;;;4953699;28;20374;-77
2022/09/30 07:18:00;;;;;;;29.58;13.45;;;7.90;99.90;;;;;;4956196;28;20085;-77
2022/09/30 07:20:27;;;;;;;37.75;14.73;;;7.90;99.90;;;;;;4953136;28;20058;-77
2022/09/30 07:22:55;;;;;;;28.58;15.50;;;7.90;99.90;;;;;;4953754;28;20509;-76
2022/09/30 07:25:22;;;;;;;33.88;12.82;;;8.00;99.90;;;;;;4950876;29;20089;-79
2022/09/30 07:27:49;;;;;;;28.40;12.45;;;8.10;99.90;;;;;;4956946;28;20092;-77
2022/09/30 07:30:17;;;;;;;47.58;13.38;;;8.10;99.90;;;;;;4951794;28;20462;-77
2022/09/30 07:32:53;;;;;;;23.65;11.75;;;7.90;99.90;;;;;;4953417;28;20054;-76
2022/09/30 07:35:20;;;;;;;29.25;12.65;;;8.00;99.90;;;;;;4934132;29;20062;-75
2022/09/30 07:37:49;;;;;;;32.88;13.32;;;8.10;99.90;;;;;;4952493;29;20051;-76
2022/09/30 07:40:16;;;;;;;23.67;13.30;;;8.30;99.90;;;;;;4966194;28;20523;-74
2022/09/30 07:42:44;;;;;;;31.80;13.02;;;8.40;99.90;;;;;;4951726;28;20489;-76
2022/09/30 07:45:18;;;;;;;25.63;13.23;;;8.60;99.90;;;;;;4951984;28;20478;-77
2022/09/30 07:47:45;;;;;;;24.02;13.82;;;8.70;99.90;;;;;;4947871;28;20047;-77
2022/09/30 07:50:20;;;;;;;20.10;13.25;;;9.00;99.90;;;;;;4934202;28;20442;-76
2022/09/30 07:52:47;;;;;;;23.45;12.80;;;9.00;99.90;;;;;;4952603;28;20047;-76
2022/09/30 07:55:14;;;;;;;21.42;13.00;;;9.10;99.90;;;;;;4955448;28;20613;-77
2022/09/30 07:57:41;;;;;;;23.83;15.15;;;9.30;99.90;;;;;;4951754;28;20039;-78
2022/09/30 08:00:09;;;;;;;22.35;14.70;;;9.50;99.90;;;;;;4950746;28;20054;-73
2022/09/30 08:02:56;;;;;;;18.25;12.70;;;9.70;99.90;;;;;;4961692;28;20496;-75
2022/09/30 08:05:24;;;;;;;21.02;12.90;;;9.90;99.90;;;;;;4939587;28;20426;-78
2022/09/30 08:07:51;;;;;;;23.42;13.75;;;10.10;99.90;;;;;;4946119;28;20093;-76
2022/09/30 08:10:18;;;;;;;20.95;13.93;;;10.40;99.90;;;;;;4943407;28;20355;-75
2022/09/30 08:12:51;;;;;;;21.50;14.23;;;10.60;99.90;;;;;;4953284;29;20502;-75
2022/09/30 08:15:24;;;;;;;19.70;12.43;;;10.60;99.90;;;;;;4956694;28;20051;-75
2022/09/30 08:17:51;;;;;;;24.27;13.95;;;10.60;99.90;;;;;;4952833;28;20043;-74
2022/09/30 08:20:18;;;;;;;18.40;12.02;;;9.90;99.90;;;;;;4952668;29;20457;-72
2022/09/30 08:22:55;;;;;;;24.05;13.45;;;10.00;99.90;;;;;;4948101;28;20043;-68
2022/09/30 08:25:23;;;;;;;20.83;13.65;;;10.00;99.90;;;;;;4955146;28;20062;-68
2022/09/30 08:27:51;;;;;;;23.45;14.02;;;10.00;99.90;;;;;;4950836;29;20477;-67
2022/09/30 08:30:18;;;;;;;25.77;14.85;;;10.10;99.90;;;;;;4953753;28;20054;-68
2022/09/30 08:32:45;;;;;;;29.17;15.00;;;10.10;99.90;;;;;;4968570;28;20493;-67
2022/09/30 08:35:13;;;;;;;21.08;13.60;;;10.10;99.90;;;;;;4950638;29;20051;-68
2022/09/30 08:37:40;;;;;;;21.40;14.00;;;10.10;99.90;;;;;;4954826;28;20051;-67
2022/09/30 08:40:23;;;;;;;20.92;13.15;;;9.90;99.90;;;;;;4951555;28;20094;-67
2022/09/30 08:43:00;;;;;;;20.50;12.95;;;10.20;99.90;;;;;;4954094;28;20085;-67
2022/09/30 08:45:46;;;;;;;17.00;11.98;;;10.50;99.90;;;;;;4952757;28;20473;-67
2022/09/30 08:48:32;;;;;;;19.92;13.90;;;10.70;99.90;;;;;;4952505;28;20074;-66
2022/09/30 08:51:03;;;;;;;19.63;12.75;;;10.80;99.90;;;;;;4942216;29;20039;-69
2022/09/30 08:53:36;;;;;;;20.63;12.95;;;10.90;99.90;;;;;;4949534;28;20417;-68
2022/09/30 08:56:05;;;;;;;19.40;13.60;;;11.00;99.90;;;;;;4959414;28;20055;-68
2022/09/30 08:58:43;;;;;;;21.30;13.63;;;11.20;99.90;;;;;;4946094;29;20550;-67
2022/09/30 09:01:37;;;;;;;21.15;13.40;;;11.30;99.90;;;;;;4956989;28;20050;-67
2022/09/30 09:04:06;;;;;;;18.38;13.15;;;11.40;99.90;;;;;;4947579;29;20047;-68
2022/09/30 09:06:57;;;;;;;18.33;12.75;;;11.20;99.90;;;;;;4951155;28;20051;-68
2022/09/30 09:09:31;;;;;;;19.63;13.25;;;11.30;99.90;;;;;;4945011;29;20143;-69
2022/09/30 09:12:10;;;;;;;20.23;13.85;;;11.50;99.90;;;;;;4959418;28;20455;-66
2022/09/30 09:15:20;;;;;;;18.33;13.27;;;11.50;99.90;;;;;;4951895;28;20067;-66
2022/09/30 09:17:56;;;;;;;22.25;14.43;;;11.40;99.90;;;;;;4965148;28;20047;-66
2022/09/30 09:20:58;;;;;;;23.23;14.20;;;11.40;99.90;;;;;;4952909;28;20046;-69
2022/09/30 09:23:30;;;;;;;18.35;14.02;;;11.50;99.90;;;;;;4950763;29;20134;-66
2022/09/30 09:25:57;;;;;;;19.95;14.05;;;11.60;99.90;;;;;;4950944;28;20054;-67
2022/09/30 09:28:32;;;;;;;18.85;13.85;;;11.40;99.90;;;;;;4940618;29;20055;-67
2022/09/30 09:31:01;;;;;;;22.00;14.98;;;11.80;99.90;;;;;;4948684;29;20043;-68
2022/09/30 09:33:30;;;;;;;22.95;14.65;;;12.20;99.90;;;;;;4963579;28;20517;-68
2022/09/30 09:36:11;;;;;;;19.02;13.18;;;12.50;99.90;;;;;;4950479;29;20058;-68
2022/09/30 09:38:53;;;;;;;18.20;14.20;;;12.70;99.90;;;;;;4966770;28;20043;-68
2022/09/30 09:41:39;;;;;;;15.23;12.70;;;12.50;99.90;;;;;;4951514;28;20055;-66
2022/09/30 09:44:43;;;;;;;18.55;13.90;;;12.70;99.90;;;;;;4952122;28;20127;-67
2022/09/30 09:47:16;;;;;;;17.63;13.43;;;12.70;99.90;;;;;;4950545;29;20058;-68
2022/09/30 09:49:44;;;;;;;16.52;13.05;;;12.80;99.90;;;;;;4951356;28;20050;-68
2022/09/30 09:52:11;;;;;;;15.35;12.23;;;12.80;99.90;;;;;;4949229;28;20058;-67
2022/09/30 09:54:40;;;;;;;16.02;12.73;;;13.00;99.90;;;;;;4960894;28;20042;-67
2022/09/30 09:57:10;;;;;;;17.23;13.25;;;13.20;99.90;;;;;;4950571;28;20490;-70
2022/09/30 09:59:54;;;;;;;18.90;13.95;;;13.40;99.90;;;;;;4945262;29;20070;-68
2022/09/30 10:02:28;;;;;;;20.08;14.77;;;13.20;99.90;;;;;;4950007;28;20398;-67
2022/09/30 10:05:00;;;;;;;18.92;14.43;;;13.00;99.90;;;;;;4956990;28;20517;-66
2022/09/30 10:07:29;;;;;;;22.33;14.60;;;13.10;99.90;;;;;;4952160;28;20469;-66
2022/09/30 10:10:05;;;;;;;20.75;15.07;;;13.10;99.90;;;;;;4950711;28;20050;-67
2022/09/30 10:12:33;;;;;;;19.92;13.98;;;13.00;99.90;;;;;;4958971;28;20047;-67
2022/09/30 10:15:20;;;;;;;16.95;13.60;;;13.20;99.90;;;;;;4947620;29;20039;-66
2022/09/30 10:17:56;;;;;;;19.42;15.07;;;13.20;99.90;;;;;;4946724;29;20043;-67
2022/09/30 10:20:35;;;;;;;19.65;14.63;;;13.10;99.90;;;;;;4947388;28;20043;-68
2022/09/30 10:23:16;;;;;;;16.23;13.10;;;13.10;99.90;;;;;;4946191;28;20044;-65
2022/09/30 10:26:16;;;;;;;19.70;14.82;;;13.20;99.90;;;;;;4951893;28;20066;-65
2022/09/30 10:29:01;;;;;;;17.17;13.07;;;13.20;99.90;;;;;;4940286;28;20099;-66
2022/09/30 10:31:37;;;;;;;19.25;13.90;;;13.50;99.90;;;;;;4955367;28;20102;-68
2022/09/30 10:34:27;;;;;;;18.65;14.45;;;13.90;99.90;;;;;;4964520;28;20126;-67
2022/09/30 10:36:56;;;;;;;17.17;12.57;;;14.20;99.90;;;;;;4962701;28;20046;-68
2022/09/30 10:39:29;;;;;;;20.15;14.10;;;14.50;99.90;;;;;;4950724;28;20067;-67
2022/09/30 10:42:06;;;;;;;17.63;14.45;;;14.70;99.90;;;;;;4953846;28;20044;-68
2022/09/30 10:44:57;;;;;;;16.70;12.32;;;14.90;99.90;;;;;;4963354;28;20592;-67
2022/09/30 10:47:25;;;;;;;15.00;12.23;;;15.30;99.90;;;;;;4955531;28;20173;-68
2022/09/30 10:49:55;;;;;;;17.98;12.88;;;15.70;99.90;;;;;;4954760;28;20802;-67
2022/09/30 10:52:29;;;;;;;17.05;12.25;;;16.10;99.90;;;;;;4953633;28;20111;-67
2022/09/30 10:54:58;;;;;;;13.82;11.73;;;16.30;99.90;;;;;;4951608;28;20389;-68
2022/09/30 10:57:34;;;;;;;13.65;11.68;;;16.40;99.90;;;;;;4952251;29;20065;-67
2022/09/30 11:00:08;;;;;;;19.20;12.93;;;16.60;99.90;;;;;;4938135;29;20525;-67
2022/09/30 11:02:53;;;;;;;14.82;12.77;;;16.90;99.90;;;;;;4955360;28;20122;-67
2022/09/30 11:05:26;;;;;;;16.23;11.98;;;16.60;99.90;;;;;;4960699;28;20506;-67
2022/09/30 11:08:17;;;;;;;15.27;12.27;;;16.60;99.90;;;;;;4949533;29;20513;-69
2022/09/30 11:11:04;;;;;;;17.38;11.40;;;16.60;99.90;;;;;;4955023;28;20043;-67
2022/09/30 11:14:08;;;;;;;14.05;10.50;;;16.90;99.90;;;;;;4952123;29;20047;-66
2022/09/30 11:17:08;;;;;;;12.80;9.30;;;17.60;99.90;;;;;;4966924;28;20078;-67
2022/09/30 11:20:07;;;;;;;12.63;10.77;;;17.50;99.90;;;;;;4953169;28;20527;-67
2022/09/30 11:22:54;;;;;;;16.20;11.55;;;17.80;99.90;;;;;;4956685;28;20055;-67
2022/09/30 11:25:31;;;;;;;12.07;10.77;;;18.10;99.90;;;;;;4954203;29;20082;-67
2022/09/30 11:28:10;;;;;;;14.13;10.93;;;18.00;99.90;;;;;;4953947;28;20114;-67
2022/09/30 11:30:50;;;;;;;13.50;11.00;;;18.20;99.90;;;;;;4944344;29;20055;-68
2022/09/30 11:33:32;;;;;;;11.93;10.35;;;17.60;99.90;;;;;;4954134;28;20062;-68
2022/09/30 11:36:18;;;;;;;10.68;9.25;;;17.70;99.90;;;;;;4953218;29;20050;-69
2022/09/30 11:39:07;;;;;;;10.65;9.27;;;18.30;99.90;;;;;;4954583;28;20051;-67
2022/09/30 11:41:38;;;;;;;12.10;9.90;;;18.70;99.90;;;;;;4953855;28;20051;-67
2022/09/30 11:44:23;;;;;;;10.75;9.65;;;18.70;99.90;;;;;;4937071;29;20054;-67
2022/09/30 11:47:20;;;;;;;12.93;9.63;;;18.40;99.90;;;;;;4952796;28;20425;-68
2022/09/30 11:50:22;;;;;;;9.70;8.75;;;18.20;99.90;;;;;;4944450;29;20051;-68
2022/09/30 11:53:04;;;;;;;9.85;8.85;;;18.10;99.90;;;;;;4947426;28;20588;-68
2022/09/30 11:56:11;;;;;;;9.80;8.80;;;18.20;99.90;;;;;;4953413;28;20465;-68
2022/09/30 11:58:44;;;;;;;11.75;8.60;;;18.50;99.90;;;;;;4952959;28;20057;-68
2022/09/30 12:01:27;;;;;;;11.18;8.57;;;18.80;99.90;;;;;;4954363;28;20039;-68
2022/09/30 12:04:00;;;;;;;9.60;8.40;;;19.20;99.90;;;;;;4941138;28;20059;-67
2022/09/30 12:06:40;;;;;;;11.50;8.77;;;19.40;99.90;;;;;;4953691;28;20505;-66
2022/09/30 12:09:24;;;;;;;11.80;10.23;;;19.40;99.90;;;;;;4952529;29;20051;-67
2022/09/30 12:12:21;;;;;;;10.43;9.32;;;19.40;99.90;;;;;;4936414;28;20494;-67
2022/09/30 12:14:58;;;;;;;11.38;10.15;;;19.10;99.90;;;;;;4937752;29;20063;-68
2022/09/30 12:17:33;;;;;;;14.10;10.75;;;19.10;99.90;;;;;;4958808;28;20562;-66
2022/09/30 12:20:23;;;;;;;12.30;10.25;;;18.80;99.90;;;;;;4952606;28;20045;-66
2022/09/30 12:23:14;;;;;;;10.90;9.77;;;19.00;99.90;;;;;;4969292;28;20039;-66
2022/09/30 12:25:54;;;;;;;11.27;9.97;;;19.60;99.90;;;;;;4927938;29;20114;-66
2022/09/30 12:31:25;;;;;;;11.10;9.98;;;20.40;99.90;;;;;;4955753;28;20070;-67
2022/09/30 12:34:19;;;;;;;14.63;10.43;;;19.60;99.90;;;;;;4947404;28;20035;-66
2022/09/30 12:37:15;;;;;;;15.07;10.88;;;19.10;99.90;;;;;;4935492;29;20048;-69
2022/09/30 12:39:49;;;;;;;12.10;10.82;;;19.10;99.90;;;;;;4954427;28;20050;-67
2022/09/30 12:42:37;;;;;;;14.65;11.10;;;18.40;99.90;;;;;;4950475;28;20070;-66
2022/09/30 12:45:23;;;;;;;11.40;10.20;;;18.40;99.90;;;;;;4948044;29;20069;-67
2022/09/30 12:47:57;;;;;;;11.02;9.85;;;18.60;99.90;;;;;;4952210;28;20142;-67
2022/09/30 12:50:40;;;;;;;12.02;10.07;;;19.40;99.90;;;;;;4967699;28;20047;-68
2022/09/30 12:53:17;;;;;;;11.82;10.10;;;19.40;99.90;;;;;;4952116;28;20034;-68
2022/09/30 12:55:45;;;;;;;15.05;10.32;;;19.50;99.90;;;;;;4954218;28;20039;-68
2022/09/30 12:58:25;;;;;;;13.20;9.30;;;18.90;99.90;;;;;;4933222;29;20387;-68
2022/09/30 13:01:02;;;;;;;11.27;9.57;;;18.70;99.90;;;;;;4953326;28;20043;-67
2022/09/30 13:03:47;;;;;;;10.93;8.80;;;18.50;99.90;;;;;;4954509;28;20051;-67
2022/09/30 13:06:16;;;;;;;9.07;7.95;;;18.60;99.90;;;;;;4938876;29;20464;-67
2022/09/30 13:09:10;;;;;;;11.35;8.20;;;18.10;99.90;;;;;;4949870;28;20062;-67
2022/09/30 13:11:43;;;;;;;9.00;7.63;;;18.40;99.90;;;;;;4947153;29;20058;-68
2022/09/30 13:14:21;;;;;;;11.80;8.18;;;18.70;99.90;;;;;;4953489;28;20043;-68
2022/09/30 13:17:07;;;;;;;;;;;20.60;99.90;;;;;;4964605;28;20506;-68
2022/09/30 13:19:39;;;;;;;8.70;7.90;;;22.80;99.90;;;;;;4963101;28;19932;-68
2022/09/30 13:22:52;;;;;;;;;;;23.20;99.90;;;;;;4952070;28;20043;-67